Terminal Aerodrome Forecast
Issued by NWS Grand Forks, ND

Home | Current Version | Previous Version | Graphics & Text | Print | Product List | Glossary On
Versions: 1 2 3 4 5 6 7 8 9 10 11 12 13 14 15 16 17 18 19 20
000
FTUS43 KFGF 221138
TAFGFK
TAF
KGFK 221138Z 2212/2312 28009KT P6SM VCSH BKN050
     FM221500 30012KT P6SM VCSH BKN070
     FM221800 30013G22KT P6SM OVC045
      TEMPO 2218/2219 4SM -SHRA OVC025
     FM230300 32011KT P6SM OVC025=

USA.gov is the U.S. government's official web portal to all federal, state and local government web resources and services.